EST,Max TemperatureF,Mean TemperatureF,Min TemperatureF,Max Dew PointF,MeanDew PointF,Min DewpointF,Max Humidity, Mean Humidity, Min Humidity, Max Sea Level PressureIn, Mean Sea Level PressureIn, Min Sea Level PressureIn, Max VisibilityMiles, Mean VisibilityMiles, Min VisibilityMiles, Max Wind SpeedMPH, Mean Wind SpeedMPH, Max Gust SpeedMPH,PrecipitationIn, CloudCover, Events, WindDirDegrees
2012-12-1,31,30,28,30,23,8,92,84,75,30.60,30.54,30.48,10,6,2,12,7,15,0.01,8,Snow,5
2012-12-2,47,39,31,45,37,30,100,93,86,30.46,30.25,30.06,7,3,0,15,5,20,0.04,8,Fog-Rain,174
2012-12-3,57,44,31,45,40,30,100,77,54,30.29,30.14,30.04,10,6,1,15,6,20,0.00,4,,217
2012-12-4,56,43,29,53,37,27,100,93,85,30.30,30.21,29.97,10,5,2,16,3,21,0.01,7,Rain,239
2012-12-5,55,44,32,52,34,12,93,69,44,30.19,30.00,29.87,10,9,5,24,14,33,0.02,6,Rain,310
2012-12-6,41,31,21,18,15,12,81,58,34,30.35,30.29,30.21,10,10,10,13,7,,0.00,2,,347
2012-12-7,41,31,20,40,30,17,93,79,64,30.28,30.13,30.03,10,6,2,7,2,8,0.07,7,Rain,182
2012-12-8,44,42,39,43,40,37,100,96,92,30.01,29.94,29.86,3,1,0,8,2,10,0.14,8,Fog-Rain,350
2012-12-9,46,41,36,41,35,31,93,78,62,30.26,30.15,29.97,10,6,0,13,5,17,0.07,6,Fog-Rain,360
2012-12-10,53,46,38,51,43,37,100,96,92,30.06,29.71,29.51,10,2,0,25,3,31,0.00,8,Fog-Rain,307
2012-12-11,49,40,31,39,29,21,82,65,48,30.19,29.89,29.61,10,10,10,23,8,29,0.03,6,Rain,326
2012-12-12,41,33,25,24,22,21,88,68,48,30.43,30.34,30.21,10,10,10,9,2,12,0.00,5,,253
2012-12-13,44,33,22,26,23,21,96,70,43,30.47,30.40,30.30,10,10,8,6,1,8,0.00,2,,270
2012-12-14,50,36,22,27,23,19,88,60,31,30.29,30.19,30.10,10,10,7,15,5,18,0.00,2,,226
2012-12-15,44,37,29,28,25,23,85,65,45,30.31,30.26,30.19,10,10,10,14,5,16,0.00,4,,5
2012-12-16,36,34,32,32,28,24,92,78,64,30.27,30.15,30.03,10,6,2,13,6,16,0.07,8,Rain-Snow,20
2012-12-17,36,34,32,34,32,30,100,95,89,30.01,29.91,29.74,10,4,2,16,10,20,0.45,8,Rain,1
2012-12-18,45,41,36,43,40,34,100,88,76,29.71,29.51,29.44,10,4,0,21,6,28,0.77,8,Fog-Rain,342
2012-12-19,45,41,36,33,29,25,73,63,53,30.07,29.76,29.53,10,10,10,24,13,37,0.00,6,,315
2012-12-20,43,35,27,34,27,23,78,66,53,30.22,30.10,29.97,10,10,6,15,4,20,0.12,5,Rain,74
2012-12-21,56,46,35,54,39,26,92,76,60,29.91,29.34,29.02,10,8,1,30,14,39,0.82,7,Rain,153
2012-12-22,38,34,30,29,23,17,72,62,51,29.72,29.46,29.25,10,10,5,32,14,45,T,7,Snow,277
2012-12-23,42,36,30,22,20,18,69,57,44,29.89,29.83,29.72,10,10,10,20,8,24,0.00,4,,254
2012-12-24,39,32,24,23,19,17,75,60,44,30.08,30.01,29.91,10,10,4,18,4,23,T,5,Snow,265
2012-12-25,38,32,25,28,25,19,92,77,61,30.26,30.05,29.96,10,7,2,14,7,20,0.04,6,Snow,349
2012-12-26,34,27,20,31,20,12,100,77,53,30.32,30.14,29.75,10,7,0,18,9,25,0.52,6,Fog-Snow,21
2012-12-27,36,32,28,32,29,20,96,84,72,29.74,29.50,29.33,10,7,2,28,17,33,0.69,8,Rain-Snow,344
2012-12-28,34,28,22,22,19,16,88,74,59,30.05,29.95,29.76,10,10,10,26,9,33,0.00,5,,312
2012-12-29,31,26,20,29,24,18,92,84,75,30.02,29.70,29.46,10,5,0,15,6,21,0.45,7,Fog-Snow,354
2012-12-30,32,27,21,28,15,6,92,69,46,30.06,29.77,29.50,10,9,2,32,13,43,0.02,4,Snow,323
2012-12-31,35,26,16,21,16,6,67,59,50,30.09,29.98,29.80,10,10,10,14,7,15,0.00,6,,209